Terminal Aerodrome Forecast
Issued by NWS Charleston, WV

Current Version | Previous Version | Text Only | Print | Product List | Glossary Off
Versions: 1 2 3 4 5 6 7 8 9 10 11 12 13 14 15 16 17 18 19 20 21 22 23 24 25 26 27

000
FTUS41 KRLX 051139
TAFCRW
TAF
KCRW 051139Z 0512/0612 00000KT 2SM BR SCT005 BKN080
     FM051300 17004KT 6SM BR BKN070
     FM051800 12004KT 6SM SHRA BR OVC050
     FM052100 09004KT 3SM SHRA VCTS OVC050CB
     FM060000 00000KT 6SM SHRA BR OVC040
     FM060500 00000KT 5SM BR BKN050
     FM061000 00000KT 2SM SHRA BR OVC030=

USA.gov is the U.S. government's official web portal to all federal, state and local government web resources and services.